createdAt,value
2017-07-15T00:01:13.458Z,9.20
2017-07-15T00:03:40.243Z,9.80
2017-07-15T00:06:06.298Z,8.83
2017-07-15T00:08:32.416Z,8.80
2017-07-15T00:10:58.454Z,9.13
2017-07-15T00:13:24.602Z,8.57
2017-07-15T00:15:50.696Z,8.80
2017-07-15T00:18:16.793Z,8.70
2017-07-15T00:20:42.825Z,9.27
2017-07-15T00:23:09.643Z,9.50
2017-07-15T00:25:35.704Z,9.47
2017-07-15T00:28:01.770Z,7.90
2017-07-15T00:30:27.847Z,6.80
2017-07-15T00:32:53.915Z,6.50
2017-07-15T00:35:19.985Z,6.37
2017-07-15T00:37:46.032Z,5.70
2017-07-15T00:40:12.113Z,6.07
2017-07-15T00:42:39.080Z,5.87
2017-07-15T00:45:05.133Z,4.50
2017-07-15T00:47:31.183Z,4.43
2017-07-15T00:49:57.989Z,5.70
2017-07-15T00:52:24.055Z,4.07
2017-07-15T00:54:50.838Z,4.00
2017-07-15T00:57:16.879Z,3.40
2017-07-15T00:59:42.922Z,3.87
2017-07-15T01:02:09.016Z,3.90
2017-07-15T01:04:35.101Z,4.10
2017-07-15T01:07:01.177Z,3.43
2017-07-15T01:09:27.282Z,3.27
2017-07-15T01:11:53.423Z,3.93
2017-07-15T01:14:20.212Z,3.37
2017-07-15T01:16:46.282Z,3.10
2017-07-15T01:19:12.420Z,3.07
2017-07-15T01:21:38.463Z,3.53
2017-07-15T01:24:04.525Z,3.47
2017-07-15T01:26:30.579Z,3.63
2017-07-15T01:28:56.710Z,3.63
2017-07-15T01:31:22.771Z,3.57
2017-07-15T01:33:49.607Z,4.53
2017-07-15T01:36:15.659Z,3.80
2017-07-15T01:38:42.445Z,3.10
2017-07-15T01:41:08.527Z,4.60
2017-07-15T01:43:35.350Z,4.00
2017-07-15T01:46:01.407Z,4.93
2017-07-15T01:48:28.252Z,4.30
2017-07-15T01:50:54.306Z,4.50
2017-07-15T01:53:20.380Z,6.57
2017-07-15T01:55:46.419Z,5.37
2017-07-15T01:58:12.480Z,5.87
2017-07-15T02:00:39.283Z,5.83
2017-07-15T02:03:05.324Z,6.03
2017-07-15T02:05:31.363Z,5.40
2017-07-15T02:07:57.478Z,5.23
2017-07-15T02:10:23.592Z,4.63
2017-07-15T02:12:49.673Z,4.87
2017-07-15T02:15:16.470Z,5.13
2017-07-15T02:17:42.512Z,6.47
2017-07-15T02:20:08.545Z,6.10
2017-07-15T02:22:34.605Z,6.07
2017-07-15T02:25:00.681Z,6.00
2017-07-15T02:27:26.709Z,6.10
2017-07-15T02:29:52.762Z,6.10
2017-07-15T02:32:18.861Z,6.17
2017-07-15T02:34:44.908Z,5.97
2017-07-15T02:37:10.988Z,6.20
2017-07-15T02:39:37.784Z,6.40
2017-07-15T02:42:03.892Z,5.77
2017-07-15T02:44:29.946Z,6.37
2017-07-15T02:46:55.996Z,6.60
2017-07-15T02:49:22.024Z,6.60
2017-07-15T02:51:48.108Z,7.40
2017-07-15T02:54:14.191Z,7.00
2017-07-15T02:56:40.240Z,6.50
2017-07-15T02:59:06.272Z,7.77
2017-07-15T03:01:32.325Z,6.57
2017-07-15T03:03:58.356Z,6.33
2017-07-15T03:06:25.164Z,7.50
2017-07-15T03:08:51.333Z,4.93
2017-07-15T03:11:18.101Z,5.10
2017-07-15T03:13:44.146Z,6.17
2017-07-15T03:16:10.168Z,5.27
2017-07-15T03:18:36.226Z,5.20
2017-07-15T03:21:02.380Z,5.33
2017-07-15T03:23:28.434Z,5.10
2017-07-15T03:25:55.232Z,5.90
2017-07-15T03:28:21.285Z,5.03
2017-07-15T03:30:47.331Z,5.50
2017-07-15T03:33:14.132Z,6.27
2017-07-15T03:35:40.197Z,6.03
2017-07-15T03:38:06.340Z,6.57
2017-07-15T03:40:33.150Z,6.57
2017-07-15T03:42:59.984Z,7.20
2017-07-15T03:45:26.032Z,6.50
2017-07-15T03:47:52.209Z,6.90
2017-07-15T03:50:18.256Z,7.90
2017-07-15T03:52:44.295Z,7.60
2017-07-15T03:55:14.040Z,6.70
2017-07-15T03:57:40.092Z,7.70
2017-07-15T04:00:06.196Z,6.83
2017-07-15T04:02:32.238Z,7.40
2017-07-15T04:04:58.327Z,7.10
2017-07-15T04:07:24.354Z,7.17
2017-07-15T04:09:50.460Z,7.20
2017-07-15T04:12:17.233Z,6.67
2017-07-15T04:14:43.280Z,7.33
2017-07-15T04:17:09.330Z,6.60
2017-07-15T04:19:35.373Z,6.40
2017-07-15T04:22:01.425Z,6.13
2017-07-15T04:24:28.213Z,6.53
2017-07-15T04:26:54.324Z,5.10
2017-07-15T04:29:20.355Z,5.33
2017-07-15T04:31:46.384Z,5.83
2017-07-15T04:34:12.428Z,6.80
2017-07-15T04:36:38.509Z,6.30
2017-07-15T04:39:05.313Z,6.00
2017-07-15T04:41:31.436Z,6.70
2017-07-15T04:43:57.456Z,6.07
2017-07-15T04:46:23.545Z,6.60
2017-07-15T04:48:50.331Z,5.93
2017-07-15T04:51:16.363Z,6.27
2017-07-15T04:53:42.407Z,6.13
2017-07-15T04:56:08.465Z,5.20
2017-07-15T04:58:34.520Z,5.60
2017-07-15T05:01:00.595Z,5.93
2017-07-15T05:03:26.656Z,4.13
2017-07-15T05:05:52.717Z,5.37
2017-07-15T05:08:18.816Z,5.50
2017-07-15T05:10:44.838Z,5.50
2017-07-15T05:13:10.907Z,5.03
2017-07-15T05:15:37.693Z,4.60
2017-07-15T05:18:03.751Z,5.13
2017-07-15T05:20:29.789Z,4.80
2017-07-15T05:22:55.832Z,5.30
2017-07-15T05:25:21.878Z,4.40
2017-07-15T05:27:47.910Z,4.97
2017-07-15T05:30:13.959Z,4.37
2017-07-15T05:32:40.014Z,4.70
2017-07-15T05:35:06.318Z,4.50
2017-07-15T05:37:32.344Z,4.70
2017-07-15T05:39:58.452Z,4.43
2017-07-15T05:42:25.233Z,4.27
2017-07-15T05:44:51.304Z,4.70
2017-07-15T05:47:17.353Z,3.20
2017-07-15T05:49:43.376Z,3.60
2017-07-15T05:52:09.413Z,4.13
2017-07-15T05:54:36.179Z,3.77
2017-07-15T05:57:02.225Z,3.30
2017-07-15T05:59:28.263Z,3.70
2017-07-15T06:01:54.373Z,3.47
2017-07-15T06:04:20.451Z,3.73
2017-07-15T06:06:46.523Z,3.27
2017-07-15T06:09:12.565Z,4.20
2017-07-15T06:11:39.405Z,4.03
2017-07-15T06:14:05.434Z,2.97
2017-07-15T06:16:31.480Z,3.93
2017-07-15T06:18:58.433Z,2.90
2017-07-15T06:21:24.457Z,3.27
2017-07-15T06:23:50.494Z,2.50
2017-07-15T06:26:16.526Z,2.97
2017-07-15T06:31:54.213Z,1.90
2017-07-15T06:34:20.239Z,3.17
2017-07-15T06:36:46.256Z,2.70
2017-07-15T06:39:13.057Z,3.00
2017-07-15T06:41:39.108Z,2.13
2017-07-15T06:44:05.146Z,2.60
2017-07-15T06:46:31.195Z,3.00
2017-07-15T06:48:57.282Z,2.93
2017-07-15T06:51:23.321Z,2.90
2017-07-15T06:53:49.393Z,2.60
2017-07-15T06:56:16.153Z,2.70
2017-07-15T06:58:42.242Z,3.40
2017-07-15T07:01:08.289Z,2.70
2017-07-15T07:03:34.313Z,2.37
2017-07-15T07:06:01.174Z,2.70
2017-07-15T07:08:28.077Z,2.03
2017-07-15T07:11:11.575Z,2.20
2017-07-15T07:13:37.602Z,2.00
2017-07-15T07:16:03.643Z,2.90
2017-07-15T07:18:29.682Z,3.43
2017-07-15T07:20:55.831Z,3.67
2017-07-15T07:23:21.867Z,3.07
2017-07-15T07:25:47.936Z,2.70
2017-07-15T07:28:13.982Z,2.63
2017-07-15T07:30:40.028Z,2.40
2017-07-15T07:33:06.073Z,3.03
2017-07-15T07:35:32.180Z,2.23
2017-07-15T07:37:58.225Z,2.00
2017-07-15T07:40:24.353Z,2.93
2017-07-15T07:42:56.541Z,2.07
2017-07-15T07:45:22.601Z,2.17
2017-07-15T07:47:49.389Z,2.17
2017-07-15T07:50:15.462Z,2.50
2017-07-15T07:52:46.104Z,2.17
2017-07-15T07:55:12.313Z,2.43
2017-07-15T07:57:38.356Z,2.23
2017-07-15T08:00:04.396Z,2.80
2017-07-15T08:02:30.721Z,2.77
2017-07-15T08:04:56.929Z,3.07
2017-07-15T08:07:22.968Z,2.23
2017-07-15T08:09:49.031Z,1.77
2017-07-15T08:12:15.828Z,2.17
2017-07-15T08:14:45.818Z,2.37
2017-07-15T08:17:12.587Z,3.30
2017-07-15T08:19:38.708Z,1.90
2017-07-15T08:22:05.030Z,2.40
2017-07-15T08:24:31.816Z,2.20
2017-07-15T08:26:57.875Z,2.30
2017-07-15T08:29:24.049Z,1.73
2017-07-15T08:31:50.077Z,2.20
2017-07-15T08:34:16.164Z,2.20
2017-07-15T08:36:42.247Z,1.73
2017-07-15T08:39:24.033Z,1.80
2017-07-15T08:41:53.714Z,2.47
2017-07-15T08:44:19.774Z,2.00
2017-07-15T08:46:45.869Z,1.60
2017-07-15T08:49:12.034Z,1.53
2017-07-15T08:51:38.110Z,1.07
2017-07-15T08:54:04.180Z,1.77
2017-07-15T08:56:31.027Z,2.73
2017-07-15T08:58:57.052Z,1.90
2017-07-15T09:01:23.181Z,2.03
2017-07-15T09:03:49.235Z,2.20
2017-07-15T09:06:15.284Z,1.90
2017-07-15T09:08:41.357Z,2.50
2017-07-15T09:11:07.428Z,2.47
2017-07-15T09:13:33.493Z,1.87
2017-07-15T09:15:59.570Z,2.33
2017-07-15T09:18:25.580Z,1.83
2017-07-15T09:20:51.608Z,2.10
2017-07-15T09:23:17.655Z,3.00
2017-07-15T09:25:43.712Z,3.70
2017-07-15T09:28:09.752Z,2.30
2017-07-15T09:30:35.827Z,2.00
2017-07-15T09:33:01.877Z,1.87
2017-07-15T09:35:27.977Z,2.70
2017-07-15T09:37:54.032Z,1.70
2017-07-15T09:40:20.092Z,2.73
2017-07-15T09:42:46.129Z,3.57
2017-07-15T09:45:12.156Z,2.23
2017-07-15T09:47:38.385Z,2.17
2017-07-15T09:50:04.409Z,1.60
2017-07-15T09:52:30.515Z,2.60
2017-07-15T09:54:57.329Z,3.23
2017-07-15T09:57:23.414Z,1.90
2017-07-15T09:59:49.533Z,1.90
2017-07-15T10:02:15.576Z,1.40
2017-07-15T10:04:41.628Z,1.50
2017-07-15T10:07:07.803Z,1.70
2017-07-15T10:09:33.876Z,2.40
2017-07-15T10:11:59.904Z,2.10
2017-07-15T10:14:25.938Z,2.03
2017-07-15T10:17:11.901Z,1.13
2017-07-15T10:19:38.285Z,1.40
2017-07-15T10:22:07.781Z,2.03
2017-07-15T10:24:37.065Z,1.80
2017-07-15T10:27:04.205Z,1.80
2017-07-15T10:29:39.692Z,1.50
2017-07-15T10:32:13.064Z,1.37
2017-07-15T10:34:39.121Z,1.77
2017-07-15T10:37:15.685Z,1.70
2017-07-15T10:39:58.968Z,1.60
2017-07-15T10:42:25.117Z,2.13
2017-07-15T10:44:59.645Z,1.63
2017-07-15T10:47:31.168Z,1.60
2017-07-15T10:50:01.496Z,1.33
2017-07-15T10:52:31.836Z,1.50
2017-07-15T10:55:01.772Z,1.40
2017-07-15T10:57:36.168Z,1.83
2017-07-15T11:00:10.488Z,2.07
2017-07-15T11:02:57.920Z,2.80
2017-07-15T11:05:31.405Z,1.37
2017-07-15T11:10:55.285Z,2.10
2017-07-15T11:13:30.516Z,2.40
2017-07-15T11:15:58.468Z,1.40
2017-07-15T11:18:39.156Z,1.60
2017-07-15T11:21:06.032Z,1.20
2017-07-15T11:23:32.139Z,3.27
2017-07-15T11:26:02.275Z,1.70
2017-07-15T11:28:33.407Z,1.47
2017-07-15T11:31:06.397Z,3.93
2017-07-15T11:33:32.454Z,1.33
2017-07-15T11:36:00.619Z,1.80
2017-07-15T11:38:34.852Z,1.57
2017-07-15T11:41:00.978Z,1.70
2017-07-15T11:43:28.130Z,1.53
2017-07-15T11:45:57.746Z,2.10
2017-07-15T11:48:23.796Z,1.73
2017-07-15T11:50:55.333Z,1.40
2017-07-15T11:53:33.707Z,1.20
2017-07-15T11:55:59.892Z,1.30
2017-07-15T11:58:29.452Z,0.87
2017-07-15T12:01:13.740Z,1.20
2017-07-15T12:03:45.049Z,1.07
2017-07-15T12:06:16.409Z,1.07
2017-07-15T12:08:58.845Z,1.50
2017-07-15T12:11:45.320Z,1.03
2017-07-15T12:14:19.828Z,1.33
2017-07-15T12:16:47.715Z,2.13
2017-07-15T12:19:13.852Z,1.40
2017-07-15T12:21:52.760Z,1.13
2017-07-15T12:24:19.532Z,1.70
2017-07-15T12:27:01.403Z,1.20
2017-07-15T12:29:33.143Z,1.53
2017-07-15T12:31:59.312Z,1.70
2017-07-15T12:34:25.333Z,1.60
2017-07-15T12:36:57.077Z,1.83
2017-07-15T12:39:25.903Z,4.17
2017-07-15T12:42:12.579Z,1.43
2017-07-15T12:47:43.596Z,1.40
2017-07-15T12:50:21.852Z,1.67
2017-07-15T12:52:53.295Z,1.33
2017-07-15T12:55:19.410Z,1.47
2017-07-15T12:58:03.866Z,1.90
2017-07-15T13:00:35.304Z,1.73
2017-07-15T13:03:14.717Z,1.00
2017-07-15T13:05:47.965Z,1.60
2017-07-15T13:08:24.456Z,1.23
2017-07-15T13:10:54.773Z,1.70
2017-07-15T13:13:24.163Z,1.30
2017-07-15T13:15:51.308Z,1.10
2017-07-15T13:18:30.419Z,1.43
2017-07-15T13:21:10.780Z,1.53
2017-07-15T13:23:38.635Z,1.57
2017-07-15T13:26:04.836Z,2.03
2017-07-15T13:28:31.090Z,1.83
2017-07-15T13:31:07.284Z,2.30
2017-07-15T13:33:34.048Z,2.40
2017-07-15T13:36:01.201Z,1.70
2017-07-15T13:38:29.281Z,1.50
2017-07-15T13:41:06.640Z,1.40
2017-07-15T13:43:40.034Z,2.00
2017-07-15T13:46:10.489Z,2.47
2017-07-15T13:48:36.596Z,5.63
2017-07-15T13:51:04.549Z,2.07
2017-07-15T13:53:38.285Z,1.47
2017-07-15T13:56:05.127Z,1.70
2017-07-15T13:58:37.942Z,1.60
2017-07-15T14:01:04.083Z,1.80
2017-07-15T14:03:30.139Z,1.37
2017-07-15T14:05:58.248Z,1.70
2017-07-15T14:08:28.295Z,2.60
2017-07-15T14:10:54.431Z,1.87
2017-07-15T14:13:20.503Z,1.40
2017-07-15T14:15:51.194Z,1.93
2017-07-15T14:18:23.544Z,1.50
2017-07-15T14:20:56.883Z,1.53
2017-07-15T14:23:22.981Z,1.63
2017-07-15T14:25:50.147Z,2.60
2017-07-15T14:28:19.681Z,1.53
2017-07-15T14:30:45.793Z,3.13
2017-07-15T14:33:13.988Z,2.43
2017-07-15T14:35:42.160Z,3.53
2017-07-15T14:38:08.258Z,1.53
2017-07-15T14:46:58.721Z,1.80
2017-07-15T14:49:35.327Z,1.83
2017-07-15T14:52:01.450Z,1.20
2017-07-15T14:54:28.266Z,1.40
2017-07-15T14:57:22.001Z,2.60
2017-07-15T14:59:48.033Z,1.87
2017-07-15T15:02:28.867Z,1.40
2017-07-15T15:05:00.369Z,1.77
2017-07-15T15:07:38.603Z,1.17
2017-07-15T15:10:04.757Z,0.90
2017-07-15T15:12:43.478Z,1.67
2017-07-15T15:15:22.927Z,1.93
2017-07-15T15:17:56.320Z,1.70
2017-07-15T15:20:29.734Z,1.40
2017-07-15T15:23:10.078Z,2.60
2017-07-15T15:25:39.710Z,2.03
2017-07-15T15:28:12.024Z,1.30
2017-07-15T15:30:48.448Z,1.17
2017-07-15T15:33:19.850Z,1.40
2017-07-15T15:35:57.272Z,1.23
2017-07-15T15:38:26.676Z,1.10
2017-07-15T15:40:58.833Z,0.97
2017-07-15T15:43:29.144Z,1.80
2017-07-15T15:45:56.061Z,1.60
2017-07-15T15:48:28.028Z,1.50
2017-07-15T15:50:54.089Z,1.57
2017-07-15T15:53:20.948Z,2.73
2017-07-15T15:56:03.666Z,1.90
2017-07-15T15:58:37.104Z,1.43
2017-07-15T16:01:07.507Z,3.30
2017-07-15T16:03:36.811Z,1.47
2017-07-15T16:06:05.683Z,1.27
2017-07-15T16:08:32.550Z,1.07
2017-07-15T16:10:58.664Z,1.43
2017-07-15T16:13:36.009Z,2.57
2017-07-15T16:16:14.348Z,1.57
2017-07-15T16:18:41.130Z,1.50
2017-07-15T16:21:07.244Z,1.10
2017-07-15T16:23:36.616Z,1.63
2017-07-15T16:26:06.730Z,1.50
2017-07-15T16:28:32.792Z,2.47
2017-07-15T16:30:58.923Z,3.80
2017-07-15T16:33:27.712Z,2.40
2017-07-15T16:35:54.562Z,3.07
2017-07-15T16:38:21.413Z,1.20
2017-07-15T16:40:51.532Z,1.40
2017-07-15T16:43:19.404Z,1.73
2017-07-15T16:45:50.166Z,2.80
2017-07-15T16:48:17.309Z,1.40
2017-07-15T16:50:50.726Z,1.20
2017-07-15T16:53:16.824Z,1.50
2017-07-15T16:55:52.192Z,1.07
2017-07-15T16:58:20.228Z,1.20
2017-07-15T17:00:46.329Z,1.13
2017-07-15T17:03:17.143Z,2.10
2017-07-15T17:05:46.444Z,1.37
2017-07-15T17:08:23.105Z,0.93
2017-07-15T17:10:49.195Z,1.00
2017-07-15T17:13:15.232Z,1.60
2017-07-15T17:15:44.704Z,1.07
2017-07-15T17:18:10.789Z,1.00
2017-07-15T17:20:37.603Z,1.20
2017-07-15T17:23:05.779Z,1.50
2017-07-15T17:25:31.808Z,1.83
2017-07-15T17:28:04.248Z,1.70
2017-07-15T17:30:30.361Z,2.40
2017-07-15T17:33:00.020Z,10.80
2017-07-15T17:35:26.061Z,1.60
2017-07-15T17:37:52.256Z,3.80
2017-07-15T17:40:18.385Z,2.00
2017-07-15T17:42:48.012Z,1.60
2017-07-15T17:45:19.238Z,1.73
2017-07-15T17:47:51.498Z,10.40
2017-07-15T17:50:23.822Z,3.40
2017-07-15T17:52:49.932Z,11.87
2017-07-15T17:55:16.006Z,4.77
2017-07-15T17:57:44.061Z,2.90
2017-07-15T18:00:10.162Z,1.70
2017-07-15T18:02:54.108Z,1.10
2017-07-15T18:05:26.726Z,1.33
2017-07-15T18:07:52.864Z,1.13
2017-07-15T18:10:19.753Z,1.60
2017-07-15T18:12:54.520Z,1.80
2017-07-15T18:15:20.644Z,1.50
2017-07-15T18:17:46.852Z,2.67
2017-07-15T18:20:20.536Z,3.67
2017-07-15T18:22:53.843Z,2.20
2017-07-15T18:25:22.128Z,2.10
2017-07-15T18:27:48.226Z,1.83
2017-07-15T18:30:15.064Z,2.47
2017-07-15T18:32:41.209Z,1.20
2017-07-15T18:35:13.522Z,1.77
2017-07-15T18:37:46.785Z,2.20
2017-07-15T18:40:17.335Z,1.80
2017-07-15T18:42:55.526Z,1.87
2017-07-15T18:45:27.821Z,1.97
2017-07-15T18:48:04.265Z,1.90
2017-07-15T18:50:40.649Z,2.10
2017-07-15T18:53:12.893Z,3.93
2017-07-15T18:55:49.500Z,4.00
2017-07-15T18:58:21.699Z,2.20
2017-07-15T19:01:08.132Z,3.03
2017-07-15T19:03:35.430Z,2.80
2017-07-15T19:06:05.030Z,2.27
2017-07-15T19:08:41.269Z,2.33
2017-07-15T19:11:13.660Z,2.43
2017-07-15T19:13:47.983Z,2.63
2017-07-15T19:16:24.426Z,2.20
2017-07-15T19:18:57.855Z,2.40
2017-07-15T19:21:27.247Z,2.43
2017-07-15T19:24:00.542Z,2.60
2017-07-15T19:26:37.982Z,3.30
2017-07-15T19:29:04.161Z,3.80
2017-07-15T19:31:33.683Z,3.43
2017-07-15T19:34:12.923Z,3.93
2017-07-15T19:36:39.121Z,5.20
2017-07-15T19:39:09.757Z,5.17
2017-07-15T19:41:56.079Z,6.87
2017-07-15T19:44:27.724Z,7.63
2017-07-15T19:47:04.178Z,5.47
2017-07-15T19:49:33.497Z,6.73
2017-07-15T19:52:09.642Z,5.30
2017-07-15T19:54:44.105Z,5.43
2017-07-15T19:57:28.849Z,6.20
2017-07-15T19:59:54.939Z,5.90
2017-07-15T20:02:29.593Z,6.43
2017-07-15T20:04:59.005Z,5.17
2017-07-15T20:07:30.184Z,6.37
2017-07-15T20:10:02.521Z,5.50
2017-07-15T20:12:47.801Z,6.27
2017-07-15T20:15:31.417Z,6.30
2017-07-15T20:18:03.855Z,7.13
2017-07-15T20:20:40.127Z,5.90
2017-07-15T20:23:18.559Z,6.23
2017-07-15T20:25:52.972Z,5.63
2017-07-15T20:28:27.325Z,5.70
2017-07-15T20:31:01.554Z,5.93
2017-07-15T20:33:30.924Z,6.10
2017-07-15T20:36:15.305Z,35.03
2017-07-15T20:38:44.803Z,6.63
2017-07-15T20:41:14.084Z,6.00
2017-07-15T20:43:51.404Z,6.37
2017-07-15T20:46:27.817Z,6.00
2017-07-15T20:49:02.048Z,7.27
2017-07-15T20:51:38.426Z,6.20
2017-07-15T20:54:09.441Z,6.10
2017-07-15T20:56:37.347Z,6.20
2017-07-15T20:59:04.517Z,6.33
2017-07-15T21:01:39.211Z,6.83
2017-07-15T21:04:25.503Z,6.73
2017-07-15T21:06:53.591Z,7.13
2017-07-15T21:09:33.008Z,9.80
2017-07-15T21:12:13.358Z,18.03
2017-07-15T21:14:46.061Z,9.77
2017-07-15T21:17:12.207Z,8.63
2017-07-15T21:19:38.326Z,20.33
2017-07-15T21:22:05.538Z,10.57
2017-07-15T21:24:31.696Z,8.53
2017-07-15T21:27:08.477Z,5.90
2017-07-15T21:29:35.734Z,6.27
2017-07-15T21:32:08.948Z,5.93
2017-07-15T21:34:36.979Z,12.80
2017-07-15T21:37:04.876Z,9.90
2017-07-15T21:39:33.032Z,12.80
2017-07-15T21:42:21.111Z,5.40
2017-07-15T21:45:05.949Z,4.73
2017-07-15T21:50:27.975Z,5.00
2017-07-15T21:53:14.210Z,5.53
2017-07-15T21:55:47.764Z,5.60
2017-07-15T21:58:13.903Z,5.50
2017-07-15T22:00:39.962Z,6.33
2017-07-15T22:03:06.066Z,6.17
2017-07-15T22:05:32.217Z,6.07
2017-07-15T22:07:58.309Z,6.27
2017-07-15T22:10:25.116Z,6.00
2017-07-15T22:12:51.172Z,5.80
2017-07-15T22:15:17.256Z,5.70
2017-07-15T22:17:43.329Z,6.17
2017-07-15T22:20:09.421Z,5.80
2017-07-15T22:22:35.592Z,5.67
2017-07-15T22:25:01.643Z,6.20
2017-07-15T22:27:28.413Z,5.70
2017-07-15T22:29:54.463Z,5.40
2017-07-15T22:32:22.626Z,7.63
2017-07-15T22:34:48.728Z,5.80
2017-07-15T22:37:14.781Z,6.20
2017-07-15T22:39:40.821Z,5.40
2017-07-15T22:42:06.864Z,7.00
2017-07-15T22:44:32.913Z,6.40
2017-07-15T22:46:58.988Z,5.83
2017-07-15T22:49:25.038Z,6.30
2017-07-15T22:51:51.117Z,6.20
2017-07-15T22:54:17.188Z,6.50
2017-07-15T22:56:43.212Z,5.77
2017-07-15T22:59:10.005Z,6.10
2017-07-15T23:01:36.061Z,6.77
2017-07-15T23:04:02.133Z,6.67
2017-07-15T23:06:28.213Z,5.60
2017-07-15T23:08:54.261Z,6.10
2017-07-15T23:11:21.086Z,5.73
2017-07-15T23:13:47.150Z,5.67
2017-07-15T23:16:13.945Z,6.50
2017-07-15T23:18:40.007Z,6.70
2017-07-15T23:21:06.122Z,6.20
2017-07-15T23:23:32.192Z,6.10
2017-07-15T23:25:58.983Z,6.33
2017-07-15T23:28:25.008Z,6.20
2017-07-15T23:30:51.081Z,6.87
2017-07-15T23:33:17.120Z,6.80
2017-07-15T23:35:43.945Z,7.87
2017-07-15T23:38:09.994Z,7.70
2017-07-15T23:40:36.769Z,7.03
2017-07-15T23:43:02.843Z,7.07
2017-07-15T23:45:28.897Z,6.53
2017-07-15T23:47:54.995Z,7.53
2017-07-15T23:50:21.073Z,7.73
2017-07-15T23:52:47.198Z,7.60
2017-07-15T23:55:13.241Z,7.70
2017-07-15T23:57:39.355Z,9.50
